Airfield :
LOGIN :

Register | Disclaimer

   EN    FR    IT 

 










Legend :    VFR   Marginal VFR   IFR   Intensive IFR   Very Intensive IFR
Visi :
Ceiling :
>= 8 km
>= 3000ft
5 to 8 km
1000 to 3000 ft
1500m to 5 km
500 to 1000 ft
800 to 1500m
200 to 500 ft
< 800m
< 200 ft
Symbols :   Thunderstorms  Fog  Heavy snow  Heavy precipitations  Wind > 20 kt
SIGMETs :     Misc.  Thunderstorms  Icing  Turbulence  Mountain Waves  Volcanic Ashes






- Airport Elevation : 79 ft
- IATA code : NSY


LICZ - Sigonella (Mil) Catania

CURRENT METAR :
  • 281155Z 09013KT 9999 FEW060 30/18 Q1014 RMK SCT SCT180 VIS MIN 9999 WIND THR28 08012KT WIND THR10 09013KT A2996 BLU

EXPIRED METARs :
  • 281055Z 08008KT 9999 FEW070 30/14 Q1014 RMK SCT SCT180 VIS MIN 9999 WIND THR28 06008KT WIND THR10 08008KT A2996 BLU
  • 280955Z 07011KT 9999 FEW070 30/14 Q1014 RMK SCT SCT160 VIS MIN 9999 WIND THR28 06010KT WIND THR10 08008KT A2997 BLU

TAF TAF LICZ
Valid from the 28 at 12:00 until the 29 at 12:00 UTC


281100Z 2812/2912 09013KT 9999 FEW030 SCT090
BECMG 2819/2821 VRB03KT 8000 SCT020 SCT070
TEMPO 2823/2905 5000 BR
BECMG 2905/2907 28005KT 9999 FEW030



MET'MAP, your aeronautical weather chart ! - Copyright ORBIFLY December 2007 - Disclaimer

ORBIFLY MET'MAP TEAM :

Programming & Development : Alexandra Zaïnal
Concept & original design : Baudouin d'Aumeries
Assistance for programming : Marc-Olivier Méhu
Technical & hardware support : Manuel Goepfert

Contact : metmap@orbifly.com




SOURCES & CREDITS :

   NOAA